Historyczne dane pomiarowe

Dodano dane terminowe – wersja testowa.

Dane z okresu 1951-2019

Wersja bazy: 1.34 [2019-03-16, lista zmian], aktualizacja planowana na 2019-04-15

Dane meteo z obszaru Polski uzyskane na podstawie danych udostępnionych przez Instytut Meteorologii i Gospodarki Wodnej – Państwowy Instytut Badawczy.

 

Wybierz Datę:    

       

TemperaturaWilgotnośćWiatrCiśnienieOpadyŚniegCzas trwania zjawisk
 Stacja t tx tn tng RH VA  wxwx mslp ppp RRR   cm mm wxwxwxwxwxwxwx
1987-08-14 13.7 16.9 9.5- 88.0- 8.0 4.0---- 23.0------------
1987-08-13 14.6 16.5 13.5- 84.5- 1.7 3.3---- 0.0------------
1987-08-12 13.8 15.2 12.5- 85.5- 4.7 6.7---- 0.0------------
1987-08-11 13.7 14.6 13.0- 88.0- 6.7 4.3---- 0.0------------
1987-08-10 14.0 15.0 11.0- 91.8- 7.3 3.0---- 0.0------------
1987-08-09 15.1 17.9 11.0- 86.5- 7.7 3.3---- 1.1------------
1987-08-08 13.6 17.8 7.9- 73.3- 5.0 6.0---- 0.2------------
1987-08-07 13.9 16.5 11.5- 73.0- 4.0 5.7---- 0.0------------
1987-08-06 13.5 15.0 12.1- 84.3- 5.7 8.7---- 0.0------------
1987-08-05 13.3 15.0 11.5- 92.0- 6.7 10.7---- 4.2------------
1987-08-04 12.4 15.5 10.3- 87.0- 7.0 6.0---- 31.7------------
1987-08-03 15.0 17.0 13.5- 76.5- 5.0 8.7---- 9.2------------
1987-08-02 13.0 15.5 11.5- 86.5- 6.3 10.7---- 3.0------------
1987-08-01 15.4 17.8 13.1- 85.5- 6.3 8.7---- 5.7------------
1987-07-31 15.3 19.5 13.3- 88.8- 5.7 8.0---- 8.0------------
1987-07-30 16.3 22.0 12.3- 80.8- 7.0 3.0---- 22.7------------
1987-07-29 14.7 16.5 12.7- 79.3- 7.0 9.3---- 0.0------------
1987-07-28 14.5 16.8 12.0- 90.3- 5.7 10.0---- 0.0------------
1987-07-27 12.9 15.0 11.0- 88.0- 8.0 10.0---- 5.5------------
1987-07-26 13.7 16.4 11.3- 77.5- 5.7 10.0---- 9.4------------
1987-07-25 15.1 17.4 12.5- 78.3- 5.3 8.3---- 2.2------------
1987-07-24 16.0 19.0 12.9- 91.3- 5.7 4.3---- 7.7------------
1987-07-23 14.1 16.4 12.7- 94.8- 7.3 2.7---- 3.4------------
1987-07-22 14.6 16.0 13.5- 95.3- 8.0 2.3---- 0.0------------
1987-07-21 13.4 16.1 9.3- 96.5- 5.7 5.0---- 0.0------------
1987-07-20 14.4 16.2 12.7- 96.0- 7.0 5.0---- 0.3------------
1987-07-19 17.5 20.0 13.0- 88.3- 7.7 5.3---- 13.0------------
1987-07-18 18.8 22.7 16.0- 82.3- 7.0 5.0---- 0.0------------
1987-07-17 19.1 25.2 13.5- 70.0- 5.3 6.7---- 0.0------------
1987-07-16 17.3 23.0 12.3- 70.5- 5.3 5.0---- 0.0------------
1987-07-15 16.9 22.0 11.5- 75.0- 5.0 6.0---- 0.0------------
1987-07-14 15.2 16.5 13.5- 87.8- 0.0 3.3---- 0.0------------
1987-07-13 14.9 16.7 13.9- 82.3- 5.3 12.7---- 0.0------------
1987-07-12 16.0 19.0 14.5- 91.3- 6.3 5.3---- 11.6------------
1987-07-11 14.0 15.4 11.5- 88.3- 8.0 2.3---- 7.3------------
1987-07-10 14.5 16.0 11.5- 78.0- 4.3 13.3---- 0.9------------
1987-07-09 15.8 19.0 14.0- 78.5- 5.7 7.3---- 3.2------------
1987-07-08 18.9 23.2 15.7- 77.5- 5.0 3.7---- 0.0------------
1987-07-07 20.9 27.6 12.8- 57.3- 3.0 4.0---- 0.0------------
1987-07-06 15.9 19.0 7.9- 67.8- 2.7 2.0---- 0.0------------
1987-07-05 14.6 16.4 11.1- 70.5- 2.3 2.7---- 0.0------------
1987-07-04 15.0 17.1 14.2- 81.3- 4.7 4.7---- 0.0------------
1987-07-03 14.9 17.7 9.0- 80.5- 3.0 2.7---- 0.0------------
1987-07-02 14.9 17.0 13.5- 84.5- 3.7 4.0---- 0.0------------
1987-07-01 16.6 25.6 15.2- 90.8- 6.7 2.0---- 0.0------------
1987-06-30 22.0 28.0 15.5- 81.8- 5.7 2.0---- 0.0------------
1987-06-29 15.9 18.8 11.0- 89.3- 6.3 3.3---- 0.0------------
1987-06-28 12.9 15.4 10.5- 83.5- 4.7 6.0---- 2.9------------
1987-06-27 13.0 18.5 11.0- 80.3- 4.7 4.3---- 7.5------------
1987-06-26 14.4 18.5 7.5- 72.5- 7.0 3.3---- 0.0------------
1987-06-25 11.9 14.5 7.4- 86.8- 4.0 3.7---- 0.0------------
1987-06-24 12.2 14.0 11.3- 90.3- 6.3 6.0---- 0.3------------
1987-06-23 14.1 19.0 8.0- 79.8- 7.0 2.7---- 11.2------------
1987-06-22 11.9 14.4 10.5- 87.8- 6.7 4.0---- 0.0------------
1987-06-21 14.7 20.6 12.1- 84.0- 6.0 3.7---- 7.7------------
1987-06-20 13.5 20.4 7.5- 79.8- 6.3 4.0---- 0.0------------
1987-06-19 11.2 12.9 9.3- 86.0- 6.7 6.0---- 0.5------------
1987-06-18 11.4 14.9 6.8- 77.0- 5.3 7.7---- 5.5------------
1987-06-17 11.5 14.0 10.0- 74.8- 6.0 12.3---- 0.0------------
1987-06-16 9.9 11.5 8.5- 95.0- 7.3 10.3---- 0.3------------
473.4 ms

 

Źródłem pochodzenia danych jest Instytut Meteorologii i Gospodarki Wodnej – Państwowy Instytut Badawczy. Dane Instytutu Meteorologii i Gospodarki Wodnej – Państwowego Instytutu Badawczego zostały przetworzone.

Dane źródłowe można odnaleźć na stronie https://dane.imgw.pl